createdAt,value
2023-04-05T00:00:39.604Z,100166.56
2023-04-05T00:03:10.094Z,100171.53
2023-04-05T00:05:39.084Z,100170.34
2023-04-05T00:08:13.333Z,100170.59
2023-04-05T00:10:40.845Z,100173.41
2023-04-05T00:13:08.931Z,100168.78
2023-04-05T00:15:36.143Z,100169.50
2023-04-05T00:18:03.882Z,100175.50
2023-04-05T00:20:31.271Z,100170.66
2023-04-05T00:22:58.433Z,100170.66
2023-04-05T00:25:26.168Z,100161.63
2023-04-05T00:27:53.303Z,100170.22
2023-04-05T00:30:23.840Z,100168.66
2023-04-05T00:32:51.365Z,100172.06
2023-04-05T00:35:18.673Z,100171.88
2023-04-05T00:37:46.075Z,100169.50
2023-04-05T00:40:13.595Z,100169.59
2023-04-05T00:42:40.827Z,100170.50
2023-04-05T00:45:08.749Z,100168.13
2023-04-05T00:47:36.716Z,100166.66
2023-04-05T00:50:06.167Z,100169.50
2023-04-05T00:52:35.238Z,100168.22
2023-04-05T00:55:02.777Z,100161.59
2023-04-05T00:57:32.074Z,100165.00
2023-04-05T01:00:01.335Z,100160.47
2023-04-05T01:02:39.474Z,100167.34
2023-04-05T01:05:40.800Z,100153.13
2023-04-05T01:08:22.701Z,100152.34
2023-04-05T01:10:59.163Z,100158.91
2023-04-05T01:13:26.336Z,100155.16
2023-04-05T01:15:53.716Z,100150.88
2023-04-05T01:18:21.986Z,100158.66
2023-04-05T01:21:26.518Z,100158.56
2023-04-05T01:24:28.880Z,100164.16
2023-04-05T01:27:14.910Z,100155.69
2023-04-05T01:29:53.331Z,100165.06
2023-04-05T01:32:59.919Z,100155.56
2023-04-05T01:35:51.389Z,100165.59
2023-04-05T01:38:27.843Z,100159.97
2023-04-05T01:40:56.091Z,100156.03
2023-04-05T01:43:23.431Z,100155.81
2023-04-05T01:45:50.642Z,100161.84
2023-04-05T01:48:17.870Z,100154.63
2023-04-05T01:50:45.028Z,100160.38
2023-04-05T01:53:13.241Z,100156.53
2023-04-05T01:55:41.847Z,100165.34
2023-04-05T01:58:09.146Z,100160.44
2023-04-05T02:00:36.333Z,100162.03
2023-04-05T02:03:03.633Z,100155.28
2023-04-05T02:05:30.978Z,100160.44
2023-04-05T02:07:58.153Z,100164.19
2023-04-05T02:10:25.608Z,100161.84
2023-04-05T02:12:54.857Z,100163.97
2023-04-05T02:15:22.171Z,100159.69
2023-04-05T02:17:49.830Z,100156.06
2023-04-05T02:20:18.443Z,100170.28
2023-04-05T02:22:45.902Z,100165.47
2023-04-05T02:25:13.424Z,100157.81
2023-04-05T02:27:41.109Z,100158.25
2023-04-05T02:30:09.648Z,100160.06
2023-04-05T02:32:36.934Z,100158.50
2023-04-05T02:35:04.856Z,100165.31
2023-04-05T02:37:31.988Z,100165.53
2023-04-05T02:39:59.187Z,100161.25
2023-04-05T02:42:26.294Z,100164.31
2023-04-05T02:44:53.712Z,100165.31
2023-04-05T02:47:22.744Z,100164.19
2023-04-05T02:49:58.742Z,100163.63
2023-04-05T02:52:32.319Z,100167.22
2023-04-05T02:54:59.629Z,100162.16
2023-04-05T02:57:30.629Z,100156.97
2023-04-05T03:00:08.595Z,100154.03
2023-04-05T03:02:37.554Z,100151.09
2023-04-05T03:05:06.208Z,100146.88
2023-04-05T03:07:33.704Z,100151.28
2023-04-05T03:10:05.003Z,100154.66
2023-04-05T03:12:32.671Z,100148.91
2023-04-05T03:15:00.378Z,100154.66
2023-04-05T03:17:34.270Z,100153.66
2023-04-05T03:20:07.061Z,100144.31
2023-04-05T03:22:34.433Z,100149.97
2023-04-05T03:25:03.351Z,100144.19
2023-04-05T03:27:31.911Z,100148.16
2023-04-05T03:30:07.612Z,100145.91
2023-04-05T03:32:39.518Z,100151.22
2023-04-05T03:35:16.713Z,100155.16
2023-04-05T03:37:46.239Z,100148.84
2023-04-05T03:40:14.401Z,100154.94
2023-04-05T03:42:41.577Z,100142.97
2023-04-05T03:45:09.394Z,100149.50
2023-04-05T03:47:37.412Z,100151.44
2023-04-05T03:50:08.897Z,100149.50
2023-04-05T03:52:36.168Z,100146.81
2023-04-05T03:55:06.211Z,100153.81
2023-04-05T03:57:37.328Z,100157.19
2023-04-05T04:00:17.477Z,100155.38
2023-04-05T04:02:48.745Z,100146.16
2023-04-05T04:05:23.880Z,100146.81
2023-04-05T04:07:55.401Z,100152.00
2023-04-05T04:10:23.745Z,100155.16
2023-04-05T04:12:54.791Z,100149.41
2023-04-05T04:15:27.539Z,100150.19
2023-04-05T04:18:13.129Z,100153.34
2023-04-05T04:21:07.116Z,100149.28
2023-04-05T04:23:50.096Z,100152.75
2023-04-05T04:26:29.041Z,100145.88
2023-04-05T04:29:16.024Z,100142.50
2023-04-05T04:32:07.061Z,100148.94
2023-04-05T04:35:07.073Z,100145.91
2023-04-05T04:37:58.645Z,100142.97
2023-04-05T04:40:50.401Z,100142.97
2023-04-05T04:43:43.668Z,100146.34
2023-04-05T04:46:20.665Z,100154.47
2023-04-05T04:49:06.714Z,100159.66
2023-04-05T04:51:35.396Z,100159.88
2023-04-05T04:54:02.588Z,100158.06
2023-04-05T04:56:29.975Z,100161.69
2023-04-05T04:58:59.122Z,100161.44
2023-04-05T05:01:26.593Z,100157.72
2023-04-05T05:03:53.839Z,100168.19
2023-04-05T05:06:27.057Z,100164.63
2023-04-05T05:08:54.494Z,100158.97
2023-04-05T05:11:21.805Z,100162.31
2023-04-05T05:13:51.858Z,100175.50
2023-04-05T05:16:23.721Z,100164.91
2023-04-05T05:18:55.173Z,100172.91
2023-04-05T05:21:26.628Z,100171.34
2023-04-05T05:23:57.438Z,100176.09
2023-04-05T05:26:24.851Z,100176.44
2023-04-05T05:28:51.964Z,100171.59
2023-04-05T05:31:19.436Z,100169.78
2023-04-05T05:33:49.550Z,100172.84
2023-04-05T05:36:16.750Z,100169.47
2023-04-05T05:38:43.874Z,100179.03
2023-04-05T05:41:11.238Z,100184.91
2023-04-05T05:43:38.464Z,100178.56
2023-04-05T05:46:05.635Z,100177.00
2023-04-05T05:48:33.277Z,100180.19
2023-04-05T05:51:01.954Z,100189.88
2023-04-05T05:53:29.305Z,100191.69
2023-04-05T05:55:57.145Z,100196.78
2023-04-05T05:58:24.595Z,100199.13
2023-04-05T06:00:53.984Z,100200.81
2023-04-05T06:03:21.697Z,100189.63
2023-04-05T06:05:54.485Z,100200.25
2023-04-05T06:08:21.986Z,100201.28
2023-04-05T06:10:50.619Z,100200.63
2023-04-05T06:13:17.763Z,100200.06
2023-04-05T06:15:45.337Z,100203.13
2023-04-05T06:18:12.458Z,100204.13
2023-04-05T06:20:41.302Z,100204.56
2023-04-05T06:23:08.699Z,100205.00
2023-04-05T06:25:36.492Z,100209.31
2023-04-05T06:28:05.561Z,100213.78
2023-04-05T06:30:34.326Z,100207.66
2023-04-05T06:33:01.534Z,100213.75
2023-04-05T06:35:28.707Z,100211.69
2023-04-05T06:37:55.882Z,100209.75
2023-04-05T06:40:23.066Z,100212.56
2023-04-05T06:42:50.192Z,100215.50
2023-04-05T06:45:23.109Z,100213.00
2023-04-05T06:47:50.603Z,100217.78
2023-04-05T06:50:18.160Z,100218.63
2023-04-05T06:52:45.434Z,100211.47
2023-04-05T06:55:12.630Z,100214.00
2023-04-05T06:57:39.753Z,100207.53
2023-04-05T07:00:13.110Z,100203.34
2023-04-05T07:02:40.623Z,100207.19
2023-04-05T07:05:08.424Z,100208.03
2023-04-05T07:07:44.300Z,100203.06
2023-04-05T07:10:11.925Z,100201.91
2023-04-05T07:12:40.495Z,100202.53
2023-04-05T07:15:08.331Z,100203.13
2023-04-05T07:17:35.548Z,100206.56
2023-04-05T07:20:06.401Z,100198.34
2023-04-05T07:22:35.224Z,100208.38
2023-04-05T07:25:02.648Z,100215.88
2023-04-05T07:27:31.005Z,100211.75
2023-04-05T07:29:58.359Z,100213.16
2023-04-05T07:32:25.811Z,100209.75
2023-04-05T07:34:53.109Z,100213.56
2023-04-05T07:37:20.315Z,100217.78
2023-04-05T07:39:47.500Z,100212.06
2023-04-05T07:42:14.729Z,100212.06
2023-04-05T07:44:41.876Z,100208.56
2023-04-05T07:47:08.998Z,100210.75
2023-04-05T07:49:37.952Z,100211.97
2023-04-05T07:52:06.218Z,100205.06
2023-04-05T07:54:33.561Z,100205.47
2023-04-05T07:57:01.145Z,100202.44
2023-04-05T07:59:28.594Z,100201.75
2023-04-05T08:01:59.245Z,100212.78
2023-04-05T08:04:32.030Z,100212.16
2023-04-05T08:06:59.170Z,100210.38
2023-04-05T08:09:26.476Z,100214.13
2023-04-05T08:11:53.646Z,100218.97
2023-04-05T08:14:21.176Z,100222.66
2023-04-05T08:16:50.644Z,100218.25
2023-04-05T08:19:17.908Z,100217.44
2023-04-05T08:21:45.478Z,100219.94
2023-04-05T08:24:12.749Z,100217.72
2023-04-05T08:26:41.769Z,100227.13
2023-04-05T08:29:09.088Z,100220.47
2023-04-05T08:31:36.657Z,100228.72
2023-04-05T08:34:06.748Z,100219.06
2023-04-05T08:36:33.961Z,100220.22
2023-04-05T08:39:01.096Z,100221.44
2023-04-05T08:41:50.642Z,100223.66
2023-04-05T08:44:22.245Z,100212.06
2023-04-05T08:46:50.782Z,100229.31
2023-04-05T08:49:17.883Z,100218.03
2023-04-05T08:51:44.921Z,100214.66
2023-04-05T08:54:12.542Z,100217.72
2023-04-05T08:56:41.832Z,100221.72
2023-04-05T08:59:11.893Z,100220.72
2023-04-05T09:01:48.893Z,100229.88
2023-04-05T09:04:21.997Z,100221.81
2023-04-05T09:06:52.454Z,100225.41
2023-04-05T09:09:21.607Z,100223.88
2023-04-05T09:11:49.909Z,100218.38
2023-04-05T09:14:19.135Z,100225.94
2023-04-05T09:16:46.639Z,100223.22
2023-04-05T09:19:14.025Z,100224.06
2023-04-05T09:22:07.124Z,100224.75
2023-04-05T09:24:44.416Z,100218.38
2023-04-05T09:27:20.899Z,100219.19
2023-04-05T09:29:56.064Z,100209.94
2023-04-05T09:32:29.246Z,100213.56
2023-04-05T09:35:04.354Z,100213.41
2023-04-05T09:37:33.864Z,100205.78
2023-04-05T09:40:06.968Z,100217.75
2023-04-05T09:42:48.543Z,100207.13
2023-04-05T09:45:18.365Z,100204.13
2023-04-05T09:47:57.749Z,100205.88
2023-04-05T09:50:25.440Z,100210.63
2023-04-05T09:53:16.517Z,100212.06
2023-04-05T09:55:44.980Z,100208.16
2023-04-05T09:58:22.266Z,100202.69
2023-04-05T10:01:03.330Z,100204.50
2023-04-05T10:03:49.630Z,100201.63
2023-04-05T10:06:17.614Z,100204.13
2023-04-05T10:08:47.988Z,100205.59
2023-04-05T10:11:18.772Z,100200.56
2023-04-05T10:13:46.587Z,100198.44
2023-04-05T10:16:19.752Z,100196.13
2023-04-05T10:18:52.507Z,100186.66
2023-04-05T10:21:26.539Z,100183.13
2023-04-05T10:24:15.297Z,100183.94
2023-04-05T10:27:18.238Z,100179.03
2023-04-05T10:30:05.926Z,100183.69
2023-04-05T10:33:07.818Z,100185.00
2023-04-05T10:36:26.164Z,100177.13
2023-04-05T10:39:34.781Z,100171.06
2023-04-05T10:42:28.068Z,100166.00
2023-04-05T10:45:11.508Z,100170.69
2023-04-05T10:47:55.896Z,100164.66
2023-04-05T10:50:24.904Z,100172.41
2023-04-05T10:52:55.921Z,100161.22
2023-04-05T10:55:23.624Z,100157.38
2023-04-05T10:57:51.485Z,100159.53
2023-04-05T11:00:19.808Z,100154.38
2023-04-05T11:02:54.941Z,100149.50
2023-04-05T11:05:37.411Z,100134.03
2023-04-05T11:08:11.598Z,100136.31
2023-04-05T11:10:41.264Z,100127.41
2023-04-05T11:13:10.827Z,100126.78
2023-04-05T11:15:38.626Z,100139.00
2023-04-05T11:18:11.908Z,100135.81
2023-04-05T11:21:21.108Z,100128.34
2023-04-05T11:24:11.848Z,100131.16
2023-04-05T11:26:47.712Z,100120.69
2023-04-05T11:29:18.245Z,100116.66
2023-04-05T11:32:01.902Z,100114.94
2023-04-05T11:34:29.064Z,100115.59
2023-04-05T11:36:56.232Z,100123.72
2023-04-05T11:39:28.392Z,100120.44
2023-04-05T11:42:12.769Z,100116.50
2023-04-05T11:44:49.143Z,100112.03
2023-04-05T11:47:23.142Z,100115.50
2023-04-05T11:49:51.493Z,100118.34
2023-04-05T11:52:22.141Z,100116.63
2023-04-05T11:54:50.412Z,100108.34
2023-04-05T11:57:23.372Z,100117.00
2023-04-05T11:59:53.423Z,100104.41
2023-04-05T12:02:21.915Z,100112.56
2023-04-05T12:04:57.745Z,100104.97
2023-04-05T12:07:32.912Z,100099.88
2023-04-05T12:10:13.963Z,100102.00
2023-04-05T12:12:44.234Z,100096.16
2023-04-05T12:15:14.670Z,100096.22
2023-04-05T12:17:53.146Z,100099.09
2023-04-05T12:20:25.743Z,100095.47
2023-04-05T12:22:57.998Z,100095.41
2023-04-05T12:25:28.230Z,100088.84
2023-04-05T12:27:55.840Z,100090.13
2023-04-05T12:30:24.470Z,100083.88
2023-04-05T12:32:56.532Z,100076.78
2023-04-05T12:35:35.330Z,100067.38
2023-04-05T12:38:06.043Z,100069.09
2023-04-05T12:40:36.436Z,100071.84
2023-04-05T12:43:08.260Z,100063.78
2023-04-05T12:45:43.313Z,100062.03
2023-04-05T12:48:22.486Z,100063.75
2023-04-05T12:50:54.883Z,100056.63
2023-04-05T12:53:25.243Z,100055.78
2023-04-05T12:55:58.633Z,100061.00
2023-04-05T12:58:39.889Z,100061.84
2023-04-05T13:01:07.758Z,100058.28
2023-04-05T13:03:35.272Z,100059.28
2023-04-05T13:06:02.873Z,100036.53
2023-04-05T13:08:30.549Z,100047.66
2023-04-05T13:10:58.317Z,100035.66
2023-04-05T13:13:25.971Z,100030.97
2023-04-05T13:15:53.439Z,100020.75
2023-04-05T13:18:21.084Z,100023.13
2023-04-05T13:20:48.278Z,100025.06
2023-04-05T13:23:15.781Z,100020.16
2023-04-05T13:25:46.969Z,100023.81
2023-04-05T13:28:14.253Z,100014.63
2023-04-05T13:30:41.725Z,100010.19
2023-04-05T13:33:09.892Z,100014.69
2023-04-05T13:35:37.195Z,100015.13
2023-04-05T13:38:05.708Z,100014.16
2023-04-05T13:40:33.109Z,100010.03
2023-04-05T13:43:01.106Z,100006.81
2023-04-05T13:45:28.576Z,100008.88
2023-04-05T13:47:56.126Z,99993.84
2023-04-05T13:50:25.072Z,99987.44
2023-04-05T13:52:52.859Z,100007.03
2023-04-05T13:55:20.632Z,99996.00
2023-04-05T13:57:47.886Z,99994.66
2023-04-05T14:00:15.627Z,99996.16
2023-04-05T14:02:43.100Z,99989.25
2023-04-05T14:05:10.584Z,99985.78
2023-04-05T14:07:38.112Z,99978.41
2023-04-05T14:10:06.843Z,99972.44
2023-04-05T14:12:34.585Z,99967.59
2023-04-05T14:15:01.932Z,99963.78
2023-04-05T14:17:29.881Z,99967.50
2023-04-05T14:19:57.161Z,99957.84
2023-04-05T14:22:24.505Z,99951.59
2023-04-05T14:24:51.785Z,99959.72
2023-04-05T14:27:22.193Z,99960.97
2023-04-05T14:29:52.447Z,99954.84
2023-04-05T14:32:19.722Z,99957.00
2023-04-05T14:34:47.032Z,99948.06
2023-04-05T14:37:14.548Z,99946.88
2023-04-05T14:39:41.810Z,99943.34
2023-04-05T14:42:09.156Z,99938.88
2023-04-05T14:44:36.454Z,99956.63
2023-04-05T14:47:03.781Z,99947.16
2023-04-05T14:49:31.461Z,99943.88
2023-04-05T14:51:59.020Z,99945.97
2023-04-05T14:54:26.397Z,99936.03
2023-04-05T14:56:53.685Z,99927.34
2023-04-05T14:59:24.073Z,99944.03
2023-04-05T15:01:51.551Z,99931.63
2023-04-05T15:04:18.891Z,99923.78
2023-04-05T15:06:46.150Z,99934.44
2023-04-05T15:09:13.528Z,99930.88
2023-04-05T15:11:41.184Z,99936.81
2023-04-05T15:14:11.518Z,99928.16
2023-04-05T15:16:45.607Z,99925.41
2023-04-05T15:19:13.291Z,99934.00
2023-04-05T15:21:41.231Z,99928.09
2023-04-05T15:24:08.690Z,99937.94
2023-04-05T15:26:35.962Z,99934.28
2023-04-05T15:29:03.257Z,99950.88
2023-04-05T15:31:34.223Z,99937.00
2023-04-05T15:34:01.953Z,99942.84
2023-04-05T15:36:29.969Z,99939.28
2023-04-05T15:38:57.304Z,99931.69
2023-04-05T15:41:24.937Z,99933.53
2023-04-05T15:43:52.233Z,99932.22
2023-04-05T15:46:19.556Z,99934.25
2023-04-05T15:48:46.998Z,99936.75
2023-04-05T15:51:14.730Z,99936.97
2023-04-05T15:53:41.966Z,99932.69
2023-04-05T15:56:09.570Z,99924.97
2023-04-05T15:58:37.477Z,99929.22
2023-04-05T16:01:05.996Z,99930.69
2023-04-05T16:03:33.705Z,99932.25
2023-04-05T16:06:01.420Z,99943.16
2023-04-05T16:08:29.091Z,99942.34
2023-04-05T16:10:57.333Z,99939.13
2023-04-05T16:13:24.794Z,99932.19
2023-04-05T16:15:52.092Z,99929.22
2023-04-05T16:18:21.250Z,99930.59
2023-04-05T16:20:48.682Z,99931.69
2023-04-05T16:23:16.072Z,99938.78
2023-04-05T16:25:43.397Z,99922.22
2023-04-05T16:28:10.837Z,99930.09
2023-04-05T16:30:38.187Z,99932.38
2023-04-05T16:33:05.962Z,99929.16
2023-04-05T16:35:33.877Z,99924.38
2023-04-05T16:38:02.637Z,99930.06
2023-04-05T16:40:30.132Z,99924.09
2023-04-05T16:42:57.553Z,99935.66
2023-04-05T16:45:26.587Z,99942.59
2023-04-05T16:47:53.987Z,99948.97
2023-04-05T16:50:21.215Z,99946.84
2023-04-05T16:52:48.678Z,99949.72
2023-04-05T16:55:16.266Z,99944.69
2023-04-05T16:57:43.706Z,99944.75
2023-04-05T17:00:12.526Z,99947.97
2023-04-05T17:02:39.945Z,99947.97
2023-04-05T17:05:07.984Z,99948.97
2023-04-05T17:07:35.378Z,99958.72
2023-04-05T17:10:04.329Z,99953.66
2023-04-05T17:12:35.041Z,99949.88
2023-04-05T17:15:02.947Z,99959.88
2023-04-05T17:17:30.459Z,99952.31
2023-04-05T17:19:57.938Z,99953.06
2023-04-05T17:22:25.229Z,99966.91
2023-04-05T17:24:52.490Z,99963.91
2023-04-05T17:27:19.716Z,99963.13
2023-04-05T17:29:46.936Z,99963.22
2023-04-05T17:32:14.158Z,99969.41
2023-04-05T17:34:41.392Z,99971.44
2023-04-05T17:37:08.749Z,99968.72
2023-04-05T17:39:35.996Z,99980.25
2023-04-05T17:42:03.445Z,99974.00
2023-04-05T17:44:30.986Z,99984.47
2023-04-05T17:47:08.622Z,99985.03
2023-04-05T17:49:37.453Z,99992.91
2023-04-05T17:52:09.939Z,99993.84
2023-04-05T17:54:38.277Z,99986.59
2023-04-05T17:57:06.451Z,99987.59
2023-04-05T17:59:35.139Z,99993.41
2023-04-05T18:02:02.510Z,99994.38
2023-04-05T18:04:29.947Z,100005.16
2023-04-05T18:06:57.246Z,100012.75
2023-04-05T18:09:24.604Z,100019.63
2023-04-05T18:11:51.865Z,100024.25
2023-04-05T18:14:19.069Z,100023.31
2023-04-05T18:16:46.333Z,100020.09
2023-04-05T18:19:13.663Z,100018.47
2023-04-05T18:21:41.014Z,100020.09
2023-04-05T18:24:08.408Z,100023.78
2023-04-05T18:26:35.974Z,100029.09
2023-04-05T18:29:05.137Z,100028.63
2023-04-05T18:31:33.363Z,100045.75
2023-04-05T18:34:00.920Z,100054.09
2023-04-05T18:36:28.131Z,100055.41
2023-04-05T18:38:59.841Z,100065.91
2023-04-05T18:41:27.184Z,100066.81
2023-04-05T18:43:55.185Z,100071.84
2023-04-05T18:46:23.920Z,100077.25
2023-04-05T18:48:54.519Z,100071.81
2023-04-05T18:51:24.250Z,100070.25
2023-04-05T18:53:51.535Z,100073.44
2023-04-05T18:56:18.831Z,100073.38
2023-04-05T18:58:46.366Z,100076.03
2023-04-05T19:01:15.899Z,100084.97
2023-04-05T19:03:45.331Z,100083.28
2023-04-05T19:06:13.889Z,100085.56
2023-04-05T19:08:41.502Z,100093.19
2023-04-05T19:11:13.609Z,100093.81
2023-04-05T19:13:42.076Z,100099.09
2023-04-05T19:16:09.520Z,100110.00
2023-04-05T19:18:36.939Z,100115.91
2023-04-05T19:21:04.665Z,100116.44
2023-04-05T19:23:32.559Z,100109.44
2023-04-05T19:25:59.866Z,100107.44
2023-04-05T19:28:27.699Z,100106.75
2023-04-05T19:30:55.302Z,100120.56
2023-04-05T19:33:22.713Z,100128.50
2023-04-05T19:35:50.786Z,100126.06
2023-04-05T19:38:20.567Z,100127.69
2023-04-05T19:40:47.904Z,100126.25
2023-04-05T19:43:16.330Z,100123.25
2023-04-05T19:45:43.711Z,100121.97
2023-04-05T19:48:41.753Z,100132.56
2023-04-05T19:51:15.379Z,100138.13
2023-04-05T19:53:49.356Z,100142.25
2023-04-05T19:56:32.558Z,100141.09
2023-04-05T19:59:28.958Z,100144.13
2023-04-05T20:01:58.346Z,100149.63
2023-04-05T20:04:27.632Z,100150.44
2023-04-05T20:06:56.126Z,100156.03
2023-04-05T20:09:26.724Z,100162.06
2023-04-05T20:12:04.123Z,100160.75
2023-04-05T20:14:41.557Z,100165.09
2023-04-05T20:17:10.569Z,100166.81
2023-04-05T20:19:41.496Z,100165.31
2023-04-05T20:22:09.907Z,100167.91
2023-04-05T20:24:39.753Z,100172.19
2023-04-05T20:27:07.187Z,100168.91
2023-04-05T20:29:36.016Z,100178.94
2023-04-05T20:32:05.675Z,100177.81
2023-04-05T20:34:36.483Z,100179.22
2023-04-05T20:37:07.804Z,100177.94
2023-04-05T20:39:35.730Z,100181.31
2023-04-05T20:42:03.886Z,100178.91
2023-04-05T20:44:31.522Z,100193.41
2023-04-05T20:46:59.130Z,100189.50
2023-04-05T20:49:27.938Z,100190.28
2023-04-05T20:51:57.033Z,100196.09
2023-04-05T20:54:24.566Z,100195.09
2023-04-05T20:56:51.943Z,100197.59
2023-04-05T20:59:19.430Z,100210.28
2023-04-05T21:01:47.490Z,100202.16
2023-04-05T21:04:15.664Z,100199.34
2023-04-05T21:06:42.927Z,100208.06
2023-04-05T21:09:10.667Z,100211.06
2023-04-05T21:11:38.182Z,100214.00
2023-04-05T21:14:05.622Z,100217.84
2023-04-05T21:16:35.369Z,100222.44
2023-04-05T21:19:02.688Z,100224.53
2023-04-05T21:21:29.964Z,100217.00
2023-04-05T21:23:57.272Z,100220.09
2023-04-05T21:26:24.632Z,100212.75
2023-04-05T21:28:51.858Z,100221.03
2023-04-05T21:31:19.107Z,100226.53
2023-04-05T21:33:46.382Z,100225.63
2023-04-05T21:36:14.141Z,100219.56
2023-04-05T21:38:41.423Z,100225.47
2023-04-05T21:41:08.674Z,100234.53
2023-04-05T21:43:35.948Z,100229.53
2023-04-05T21:46:03.223Z,100232.50
2023-04-05T21:48:30.539Z,100231.06
2023-04-05T21:50:57.827Z,100231.53
2023-04-05T21:53:25.485Z,100239.75
2023-04-05T21:55:52.923Z,100240.34
2023-04-05T21:58:20.182Z,100236.72
2023-04-05T22:00:47.462Z,100248.13
2023-04-05T22:03:15.025Z,100245.53
2023-04-05T22:05:42.333Z,100245.63
2023-04-05T22:08:10.516Z,100247.44
2023-04-05T22:10:38.686Z,100240.91
2023-04-05T22:13:06.036Z,100240.47
2023-04-05T22:15:33.734Z,100250.53
2023-04-05T22:18:02.640Z,100244.19
2023-04-05T22:20:30.068Z,100248.56
2023-04-05T22:22:57.337Z,100245.19
2023-04-05T22:25:26.271Z,100247.47
2023-04-05T22:27:59.415Z,100250.97
2023-04-05T22:30:28.846Z,100254.81
2023-04-05T22:32:56.819Z,100256.25
2023-04-05T22:35:24.235Z,100255.81
2023-04-05T22:37:51.773Z,100255.34
2023-04-05T22:40:19.013Z,100259.31
2023-04-05T22:42:46.526Z,100253.44
2023-04-05T22:45:13.886Z,100263.59
2023-04-05T22:47:41.361Z,100257.59
2023-04-05T22:50:09.352Z,100267.06
2023-04-05T22:52:36.633Z,100265.94
2023-04-05T22:55:05.530Z,100271.56
2023-04-05T22:57:32.989Z,100267.72
2023-04-05T23:00:00.663Z,100269.41
2023-04-05T23:02:29.986Z,100264.09
2023-04-05T23:04:58.180Z,100271.53
2023-04-05T23:07:26.212Z,100270.63
2023-04-05T23:09:53.467Z,100275.94
2023-04-05T23:12:21.207Z,100277.53
2023-04-05T23:14:48.490Z,100279.88
2023-04-05T23:17:15.817Z,100286.63
2023-04-05T23:19:43.246Z,100284.94
2023-04-05T23:22:10.856Z,100282.00
2023-04-05T23:24:38.405Z,100289.31
2023-04-05T23:27:06.328Z,100292.78
2023-04-05T23:29:33.646Z,100296.50
2023-04-05T23:32:00.866Z,100294.31
2023-04-05T23:34:28.085Z,100296.91
2023-04-05T23:36:55.444Z,100299.25
2023-04-05T23:39:22.742Z,100292.28
2023-04-05T23:41:49.965Z,100301.91
2023-04-05T23:44:17.221Z,100304.75
2023-04-05T23:46:44.486Z,100306.56
2023-04-05T23:49:11.769Z,100311.97
2023-04-05T23:51:38.991Z,100306.66
2023-04-05T23:54:06.387Z,100313.09
2023-04-05T23:56:37.755Z,100309.47
2023-04-05T23:59:05.033Z,100311.19
